sensor_id;sensor_type;location;lat;lon;timestamp;P1;durP1;ratioP1;P2;durP2;ratioP2
69152;SDS011;56261;51.580;4.578;2023-04-24T00:00:14;14.97;;;6.00;;
69152;SDS011;56261;51.580;4.578;2023-04-24T00:02:40;8.00;;;2.63;;
69152;SDS011;56261;51.580;4.578;2023-04-24T00:05:11;8.23;;;2.05;;
69152;SDS011;56261;51.580;4.578;2023-04-24T00:07:37;6.83;;;2.03;;
69152;SDS011;56261;51.580;4.578;2023-04-24T00:10:03;11.33;;;5.80;;
69152;SDS011;56261;51.580;4.578;2023-04-24T00:12:28;11.18;;;4.32;;
69152;SDS011;56261;51.580;4.578;2023-04-24T00:14:54;7.47;;;3.45;;
69152;SDS011;56261;51.580;4.578;2023-04-24T00:17:20;10.93;;;5.33;;
69152;SDS011;56261;51.580;4.578;2023-04-24T00:19:46;5.57;;;2.03;;
69152;SDS011;56261;51.580;4.578;2023-04-24T00:22:12;13.02;;;5.13;;
69152;SDS011;56261;51.580;4.578;2023-04-24T00:24:38;7.22;;;2.53;;
69152;SDS011;56261;51.580;4.578;2023-04-24T00:27:04;16.92;;;4.68;;
69152;SDS011;56261;51.580;4.578;2023-04-24T00:29:30;2.53;;;1.27;;
69152;SDS011;56261;51.580;4.578;2023-04-24T00:31:55;8.90;;;3.90;;
69152;SDS011;56261;51.580;4.578;2023-04-24T00:34:20;4.40;;;1.80;;
69152;SDS011;56261;51.580;4.578;2023-04-24T00:36:46;6.75;;;2.78;;
69152;SDS011;56261;51.580;4.578;2023-04-24T00:39:14;5.63;;;1.98;;
69152;SDS011;56261;51.580;4.578;2023-04-24T00:41:39;2.50;;;0.90;;
69152;SDS011;56261;51.580;4.578;2023-04-24T00:44:05;5.00;;;2.03;;
69152;SDS011;56261;51.580;4.578;2023-04-24T00:46:30;5.05;;;2.15;;
69152;SDS011;56261;51.580;4.578;2023-04-24T00:48:56;5.63;;;2.63;;
69152;SDS011;56261;51.580;4.578;2023-04-24T00:51:23;5.53;;;2.13;;
69152;SDS011;56261;51.580;4.578;2023-04-24T00:53:49;3.10;;;1.38;;
69152;SDS011;56261;51.580;4.578;2023-04-24T00:56:16;7.10;;;3.23;;
69152;SDS011;56261;51.580;4.578;2023-04-24T00:58:42;8.20;;;4.45;;
69152;SDS011;56261;51.580;4.578;2023-04-24T01:01:08;13.10;;;6.57;;
69152;SDS011;56261;51.580;4.578;2023-04-24T01:03:34;16.75;;;6.00;;
69152;SDS011;56261;51.580;4.578;2023-04-24T01:06:02;7.20;;;3.13;;
69152;SDS011;56261;51.580;4.578;2023-04-24T01:08:29;12.90;;;5.25;;
69152;SDS011;56261;51.580;4.578;2023-04-24T01:10:55;14.90;;;6.27;;
69152;SDS011;56261;51.580;4.578;2023-04-24T01:13:22;15.95;;;7.53;;
69152;SDS011;56261;51.580;4.578;2023-04-24T01:15:47;13.53;;;7.03;;
69152;SDS011;56261;51.580;4.578;2023-04-24T01:18:14;12.33;;;6.13;;
69152;SDS011;56261;51.580;4.578;2023-04-24T01:20:41;17.95;;;4.32;;
69152;SDS011;56261;51.580;4.578;2023-04-24T01:23:07;10.27;;;4.97;;
69152;SDS011;56261;51.580;4.578;2023-04-24T01:25:33;11.02;;;3.60;;
69152;SDS011;56261;51.580;4.578;2023-04-24T01:27:59;16.77;;;8.05;;
69152;SDS011;56261;51.580;4.578;2023-04-24T01:30:25;8.40;;;3.97;;
69152;SDS011;56261;51.580;4.578;2023-04-24T01:32:52;8.02;;;4.38;;
69152;SDS011;56261;51.580;4.578;2023-04-24T01:35:18;5.38;;;2.28;;
69152;SDS011;56261;51.580;4.578;2023-04-24T01:37:44;8.82;;;3.50;;
69152;SDS011;56261;51.580;4.578;2023-04-24T01:40:10;10.07;;;5.03;;
69152;SDS011;56261;51.580;4.578;2023-04-24T01:42:36;8.70;;;4.00;;
69152;SDS011;56261;51.580;4.578;2023-04-24T01:45:02;7.53;;;2.73;;
69152;SDS011;56261;51.580;4.578;2023-04-24T01:47:30;11.55;;;3.40;;
69152;SDS011;56261;51.580;4.578;2023-04-24T01:49:56;5.90;;;2.90;;
69152;SDS011;56261;51.580;4.578;2023-04-24T01:52:22;14.55;;;5.05;;
69152;SDS011;56261;51.580;4.578;2023-04-24T01:54:47;11.97;;;4.33;;
69152;SDS011;56261;51.580;4.578;2023-04-24T01:57:13;5.70;;;2.10;;
69152;SDS011;56261;51.580;4.578;2023-04-24T01:59:39;11.18;;;4.97;;
69152;SDS011;56261;51.580;4.578;2023-04-24T02:02:05;6.10;;;2.30;;
69152;SDS011;56261;51.580;4.578;2023-04-24T02:04:31;13.25;;;5.68;;
69152;SDS011;56261;51.580;4.578;2023-04-24T02:06:56;6.03;;;3.00;;
69152;SDS011;56261;51.580;4.578;2023-04-24T02:09:22;5.37;;;2.13;;
69152;SDS011;56261;51.580;4.578;2023-04-24T02:11:47;8.40;;;2.63;;
69152;SDS011;56261;51.580;4.578;2023-04-24T02:14:12;11.50;;;3.50;;
69152;SDS011;56261;51.580;4.578;2023-04-24T02:16:38;11.53;;;4.63;;
69152;SDS011;56261;51.580;4.578;2023-04-24T02:19:03;9.43;;;3.53;;
69152;SDS011;56261;51.580;4.578;2023-04-24T02:21:29;8.45;;;3.50;;
69152;SDS011;56261;51.580;4.578;2023-04-24T02:23:56;6.35;;;3.42;;
69152;SDS011;56261;51.580;4.578;2023-04-24T02:26:21;6.63;;;1.90;;
69152;SDS011;56261;51.580;4.578;2023-04-24T02:28:47;6.30;;;2.40;;
69152;SDS011;56261;51.580;4.578;2023-04-24T02:31:12;5.13;;;1.83;;
69152;SDS011;56261;51.580;4.578;2023-04-24T02:33:37;3.60;;;1.70;;
69152;SDS011;56261;51.580;4.578;2023-04-24T02:36:03;9.50;;;2.93;;
69152;SDS011;56261;51.580;4.578;2023-04-24T02:38:29;2.10;;;0.70;;
69152;SDS011;56261;51.580;4.578;2023-04-24T02:40:54;5.65;;;1.42;;
69152;SDS011;56261;51.580;4.578;2023-04-24T02:43:20;8.00;;;2.73;;
69152;SDS011;56261;51.580;4.578;2023-04-24T02:45:45;5.50;;;2.23;;
69152;SDS011;56261;51.580;4.578;2023-04-24T02:48:11;2.85;;;1.05;;
69152;SDS011;56261;51.580;4.578;2023-04-24T02:50:36;2.60;;;1.07;;
69152;SDS011;56261;51.580;4.578;2023-04-24T02:53:02;6.33;;;2.73;;
69152;SDS011;56261;51.580;4.578;2023-04-24T02:55:27;2.43;;;0.80;;
69152;SDS011;56261;51.580;4.578;2023-04-24T02:57:53;6.95;;;2.95;;
69152;SDS011;56261;51.580;4.578;2023-04-24T03:00:18;5.57;;;2.03;;
69152;SDS011;56261;51.580;4.578;2023-04-24T03:02:44;4.07;;;1.33;;
69152;SDS011;56261;51.580;4.578;2023-04-24T03:05:09;8.05;;;2.70;;
69152;SDS011;56261;51.580;4.578;2023-04-24T03:07:36;14.97;;;3.40;;
69152;SDS011;56261;51.580;4.578;2023-04-24T03:10:02;4.40;;;1.55;;
69152;SDS011;56261;51.580;4.578;2023-04-24T03:12:28;10.37;;;1.90;;
69152;SDS011;56261;51.580;4.578;2023-04-24T03:14:53;3.78;;;1.25;;
69152;SDS011;56261;51.580;4.578;2023-04-24T03:17:22;4.40;;;1.53;;
69152;SDS011;56261;51.580;4.578;2023-04-24T03:19:47;3.63;;;0.80;;
69152;SDS011;56261;51.580;4.578;2023-04-24T03:22:12;2.05;;;0.68;;
69152;SDS011;56261;51.580;4.578;2023-04-24T03:24:38;5.30;;;1.60;;
69152;SDS011;56261;51.580;4.578;2023-04-24T03:27:04;4.05;;;2.08;;
69152;SDS011;56261;51.580;4.578;2023-04-24T03:29:29;5.47;;;1.40;;
69152;SDS011;56261;51.580;4.578;2023-04-24T03:31:55;5.03;;;1.70;;
69152;SDS011;56261;51.580;4.578;2023-04-24T03:34:20;4.97;;;1.60;;
69152;SDS011;56261;51.580;4.578;2023-04-24T03:36:45;3.83;;;1.40;;
69152;SDS011;56261;51.580;4.578;2023-04-24T03:39:14;2.67;;;0.57;;
69152;SDS011;56261;51.580;4.578;2023-04-24T03:41:39;9.95;;;1.98;;
69152;SDS011;56261;51.580;4.578;2023-04-24T03:44:05;1.63;;;0.40;;
69152;SDS011;56261;51.580;4.578;2023-04-24T03:46:30;2.77;;;0.70;;
69152;SDS011;56261;51.580;4.578;2023-04-24T03:48:55;1.93;;;0.40;;
69152;SDS011;56261;51.580;4.578;2023-04-24T03:51:21;1.30;;;0.30;;
69152;SDS011;56261;51.580;4.578;2023-04-24T03:53:47;4.55;;;1.23;;
69152;SDS011;56261;51.580;4.578;2023-04-24T03:56:13;2.10;;;0.40;;
69152;SDS011;56261;51.580;4.578;2023-04-24T03:58:39;1.90;;;0.57;;
69152;SDS011;56261;51.580;4.578;2023-04-24T04:01:04;1.93;;;0.60;;
69152;SDS011;56261;51.580;4.578;2023-04-24T04:03:30;2.50;;;0.70;;
69152;SDS011;56261;51.580;4.578;2023-04-24T04:05:55;2.08;;;0.43;;
69152;SDS011;56261;51.580;4.578;2023-04-24T04:08:21;2.27;;;0.70;;
69152;SDS011;56261;51.580;4.578;2023-04-24T04:10:46;4.00;;;1.20;;
69152;SDS011;56261;51.580;4.578;2023-04-24T04:13:12;2.53;;;0.87;;
69152;SDS011;56261;51.580;4.578;2023-04-24T04:15:37;15.38;;;1.67;;
69152;SDS011;56261;51.580;4.578;2023-04-24T04:18:03;5.87;;;1.60;;
69152;SDS011;56261;51.580;4.578;2023-04-24T04:20:28;8.17;;;2.30;;
69152;SDS011;56261;51.580;4.578;2023-04-24T04:22:54;5.33;;;2.00;;
69152;SDS011;56261;51.580;4.578;2023-04-24T04:25:19;4.13;;;1.20;;
69152;SDS011;56261;51.580;4.578;2023-04-24T04:27:45;6.10;;;2.03;;
69152;SDS011;56261;51.580;4.578;2023-04-24T04:30:12;7.33;;;1.50;;
69152;SDS011;56261;51.580;4.578;2023-04-24T04:32:38;7.30;;;2.22;;
69152;SDS011;56261;51.580;4.578;2023-04-24T04:35:04;6.30;;;1.67;;
69152;SDS011;56261;51.580;4.578;2023-04-24T04:37:30;7.65;;;1.83;;
69152;SDS011;56261;51.580;4.578;2023-04-24T04:39:57;13.48;;;2.67;;
69152;SDS011;56261;51.580;4.578;2023-04-24T04:42:23;6.72;;;1.42;;
69152;SDS011;56261;51.580;4.578;2023-04-24T04:44:49;4.23;;;1.40;;
69152;SDS011;56261;51.580;4.578;2023-04-24T04:47:15;8.73;;;2.55;;
69152;SDS011;56261;51.580;4.578;2023-04-24T04:49:42;4.43;;;0.95;;
69152;SDS011;56261;51.580;4.578;2023-04-24T04:52:08;4.77;;;1.73;;
69152;SDS011;56261;51.580;4.578;2023-04-24T04:54:33;6.07;;;2.10;;
69152;SDS011;56261;51.580;4.578;2023-04-24T04:56:59;8.20;;;2.03;;
69152;SDS011;56261;51.580;4.578;2023-04-24T04:59:25;5.75;;;2.08;;
69152;SDS011;56261;51.580;4.578;2023-04-24T05:01:51;3.90;;;1.20;;
69152;SDS011;56261;51.580;4.578;2023-04-24T05:04:16;6.70;;;2.33;;
69152;SDS011;56261;51.580;4.578;2023-04-24T05:06:41;5.77;;;3.40;;
69152;SDS011;56261;51.580;4.578;2023-04-24T05:09:07;6.93;;;2.67;;
69152;SDS011;56261;51.580;4.578;2023-04-24T05:11:32;3.33;;;1.07;;
69152;SDS011;56261;51.580;4.578;2023-04-24T05:13:58;7.50;;;3.03;;
69152;SDS011;56261;51.580;4.578;2023-04-24T05:16:23;10.37;;;3.00;;
69152;SDS011;56261;51.580;4.578;2023-04-24T05:18:49;17.60;;;5.67;;
69152;SDS011;56261;51.580;4.578;2023-04-24T05:21:14;14.90;;;4.30;;
69152;SDS011;56261;51.580;4.578;2023-04-24T05:23:39;11.23;;;4.13;;
69152;SDS011;56261;51.580;4.578;2023-04-24T05:26:05;13.00;;;5.82;;
69152;SDS011;56261;51.580;4.578;2023-04-24T05:28:30;14.70;;;5.97;;
69152;SDS011;56261;51.580;4.578;2023-04-24T05:30:56;21.73;;;8.00;;
69152;SDS011;56261;51.580;4.578;2023-04-24T05:33:21;16.67;;;6.93;;
69152;SDS011;56261;51.580;4.578;2023-04-24T05:35:47;17.58;;;6.97;;
69152;SDS011;56261;51.580;4.578;2023-04-24T05:38:13;15.77;;;4.15;;
69152;SDS011;56261;51.580;4.578;2023-04-24T05:40:39;18.85;;;6.50;;
69152;SDS011;56261;51.580;4.578;2023-04-24T05:43:04;16.77;;;5.30;;
69152;SDS011;56261;51.580;4.578;2023-04-24T05:45:30;8.90;;;2.63;;
69152;SDS011;56261;51.580;4.578;2023-04-24T05:47:56;12.30;;;5.13;;
69152;SDS011;56261;51.580;4.578;2023-04-24T05:50:22;7.70;;;4.20;;
69152;SDS011;56261;51.580;4.578;2023-04-24T05:52:47;16.43;;;6.43;;
69152;SDS011;56261;51.580;4.578;2023-04-24T05:55:12;9.73;;;4.30;;
69152;SDS011;56261;51.580;4.578;2023-04-24T05:57:38;6.25;;;3.25;;
69152;SDS011;56261;51.580;4.578;2023-04-24T06:00:04;16.63;;;7.40;;
69152;SDS011;56261;51.580;4.578;2023-04-24T06:02:30;15.25;;;5.05;;
69152;SDS011;56261;51.580;4.578;2023-04-24T06:04:57;9.55;;;3.63;;
69152;SDS011;56261;51.580;4.578;2023-04-24T06:07:24;12.32;;;4.68;;
69152;SDS011;56261;51.580;4.578;2023-04-24T06:09:51;17.60;;;5.30;;
69152;SDS011;56261;51.580;4.578;2023-04-24T06:12:17;11.38;;;3.92;;
69152;SDS011;56261;51.580;4.578;2023-04-24T06:14:42;14.07;;;3.97;;
69152;SDS011;56261;51.580;4.578;2023-04-24T06:17:08;13.63;;;4.15;;
69152;SDS011;56261;51.580;4.578;2023-04-24T06:19:33;16.67;;;4.33;;
69152;SDS011;56261;51.580;4.578;2023-04-24T06:21:59;10.27;;;3.50;;
69152;SDS011;56261;51.580;4.578;2023-04-24T06:24:27;14.80;;;5.03;;
69152;SDS011;56261;51.580;4.578;2023-04-24T06:26:53;15.73;;;5.47;;
69152;SDS011;56261;51.580;4.578;2023-04-24T06:29:19;11.63;;;3.78;;
69152;SDS011;56261;51.580;4.578;2023-04-24T06:31:44;9.90;;;3.33;;
69152;SDS011;56261;51.580;4.578;2023-04-24T06:34:10;20.73;;;5.37;;
69152;SDS011;56261;51.580;4.578;2023-04-24T06:36:35;12.87;;;2.97;;
69152;SDS011;56261;51.580;4.578;2023-04-24T06:39:01;9.93;;;3.22;;
69152;SDS011;56261;51.580;4.578;2023-04-24T06:41:26;12.23;;;4.00;;
69152;SDS011;56261;51.580;4.578;2023-04-24T06:43:52;11.43;;;3.67;;
69152;SDS011;56261;51.580;4.578;2023-04-24T06:46:17;6.47;;;1.67;;
69152;SDS011;56261;51.580;4.578;2023-04-24T06:48:43;3.40;;;1.53;;
69152;SDS011;56261;51.580;4.578;2023-04-24T06:51:08;12.40;;;3.27;;
69152;SDS011;56261;51.580;4.578;2023-04-24T06:53:34;6.45;;;3.85;;
69152;SDS011;56261;51.580;4.578;2023-04-24T06:56:00;8.30;;;2.40;;
69152;SDS011;56261;51.580;4.578;2023-04-24T06:58:25;10.05;;;3.47;;
69152;SDS011;56261;51.580;4.578;2023-04-24T07:00:51;8.03;;;2.83;;
69152;SDS011;56261;51.580;4.578;2023-04-24T07:03:16;5.70;;;1.60;;
69152;SDS011;56261;51.580;4.578;2023-04-24T07:05:41;3.27;;;1.30;;
69152;SDS011;56261;51.580;4.578;2023-04-24T07:08:07;10.05;;;2.58;;
69152;SDS011;56261;51.580;4.578;2023-04-24T07:10:33;10.03;;;2.83;;
69152;SDS011;56261;51.580;4.578;2023-04-24T07:13:00;4.20;;;1.63;;
69152;SDS011;56261;51.580;4.578;2023-04-24T07:15:26;6.70;;;2.72;;
69152;SDS011;56261;51.580;4.578;2023-04-24T07:17:52;13.30;;;3.43;;
69152;SDS011;56261;51.580;4.578;2023-04-24T07:20:17;13.82;;;3.25;;
69152;SDS011;56261;51.580;4.578;2023-04-24T07:22:42;7.40;;;1.93;;
69152;SDS011;56261;51.580;4.578;2023-04-24T07:25:08;4.53;;;1.93;;
69152;SDS011;56261;51.580;4.578;2023-04-24T07:27:34;3.70;;;0.97;;
69152;SDS011;56261;51.580;4.578;2023-04-24T07:30:01;5.18;;;2.10;;
69152;SDS011;56261;51.580;4.578;2023-04-24T07:32:31;7.65;;;1.15;;
69152;SDS011;56261;51.580;4.578;2023-04-24T07:34:57;6.47;;;1.55;;
69152;SDS011;56261;51.580;4.578;2023-04-24T07:37:22;2.70;;;0.97;;
69152;SDS011;56261;51.580;4.578;2023-04-24T07:39:48;15.63;;;2.70;;
69152;SDS011;56261;51.580;4.578;2023-04-24T07:42:14;22.33;;;2.13;;
69152;SDS011;56261;51.580;4.578;2023-04-24T07:44:39;8.03;;;0.97;;
69152;SDS011;56261;51.580;4.578;2023-04-24T07:47:05;8.07;;;1.60;;
69152;SDS011;56261;51.580;4.578;2023-04-24T07:49:30;8.77;;;1.67;;
69152;SDS011;56261;51.580;4.578;2023-04-24T07:51:56;5.37;;;1.20;;
69152;SDS011;56261;51.580;4.578;2023-04-24T07:54:21;12.97;;;1.90;;
69152;SDS011;56261;51.580;4.578;2023-04-24T07:56:46;13.73;;;2.13;;
69152;SDS011;56261;51.580;4.578;2023-04-24T07:59:12;10.90;;;1.77;;
69152;SDS011;56261;51.580;4.578;2023-04-24T08:01:37;12.00;;;1.87;;
69152;SDS011;56261;51.580;4.578;2023-04-24T08:04:03;4.70;;;0.97;;
69152;SDS011;56261;51.580;4.578;2023-04-24T08:06:28;11.82;;;1.77;;
69152;SDS011;56261;51.580;4.578;2023-04-24T08:08:58;12.07;;;2.47;;
69152;SDS011;56261;51.580;4.578;2023-04-24T08:11:25;2.47;;;0.77;;
69152;SDS011;56261;51.580;4.578;2023-04-24T08:13:50;3.85;;;0.93;;
69152;SDS011;56261;51.580;4.578;2023-04-24T08:16:16;13.33;;;1.97;;
69152;SDS011;56261;51.580;4.578;2023-04-24T08:18:41;4.57;;;0.70;;
69152;SDS011;56261;51.580;4.578;2023-04-24T08:21:07;18.80;;;2.47;;
69152;SDS011;56261;51.580;4.578;2023-04-24T08:23:32;7.95;;;1.42;;
69152;SDS011;56261;51.580;4.578;2023-04-24T08:25:57;8.37;;;1.37;;
69152;SDS011;56261;51.580;4.578;2023-04-24T08:28:23;8.10;;;1.40;;
69152;SDS011;56261;51.580;4.578;2023-04-24T08:30:48;8.33;;;1.57;;
69152;SDS011;56261;51.580;4.578;2023-04-24T08:33:19;8.50;;;2.42;;
69152;SDS011;56261;51.580;4.578;2023-04-24T08:35:45;6.65;;;1.30;;
69152;SDS011;56261;51.580;4.578;2023-04-24T08:38:10;11.60;;;1.57;;
69152;SDS011;56261;51.580;4.578;2023-04-24T08:40:36;6.43;;;1.60;;
69152;SDS011;56261;51.580;4.578;2023-04-24T08:43:01;4.07;;;0.95;;
69152;SDS011;56261;51.580;4.578;2023-04-24T08:45:28;7.40;;;1.05;;
69152;SDS011;56261;51.580;4.578;2023-04-24T08:47:54;19.25;;;1.30;;
69152;SDS011;56261;51.580;4.578;2023-04-24T08:50:20;5.80;;;1.67;;
69152;SDS011;56261;51.580;4.578;2023-04-24T08:52:47;4.63;;;1.02;;
69152;SDS011;56261;51.580;4.578;2023-04-24T08:55:15;5.78;;;1.50;;
69152;SDS011;56261;51.580;4.578;2023-04-24T08:57:43;20.98;;;2.15;;
69152;SDS011;56261;51.580;4.578;2023-04-24T09:00:10;8.13;;;1.30;;
69152;SDS011;56261;51.580;4.578;2023-04-24T09:02:38;5.35;;;1.13;;
69152;SDS011;56261;51.580;4.578;2023-04-24T09:05:06;6.75;;;1.75;;
69152;SDS011;56261;51.580;4.578;2023-04-24T09:07:33;2.88;;;1.00;;
69152;SDS011;56261;51.580;4.578;2023-04-24T09:10:01;2.13;;;0.57;;
69152;SDS011;56261;51.580;4.578;2023-04-24T09:12:27;2.60;;;0.87;;
69152;SDS011;56261;51.580;4.578;2023-04-24T09:14:52;3.83;;;0.82;;
69152;SDS011;56261;51.580;4.578;2023-04-24T09:17:20;2.70;;;0.87;;
69152;SDS011;56261;51.580;4.578;2023-04-24T09:19:47;4.05;;;0.80;;
69152;SDS011;56261;51.580;4.578;2023-04-24T09:22:13;2.00;;;0.50;;
69152;SDS011;56261;51.580;4.578;2023-04-24T09:24:40;1.77;;;0.40;;
69152;SDS011;56261;51.580;4.578;2023-04-24T09:27:05;3.75;;;0.95;;
69152;SDS011;56261;51.580;4.578;2023-04-24T09:29:32;2.67;;;0.70;;
69152;SDS011;56261;51.580;4.578;2023-04-24T09:31:58;1.90;;;0.43;;
69152;SDS011;56261;51.580;4.578;2023-04-24T09:34:24;3.95;;;0.52;;
69152;SDS011;56261;51.580;4.578;2023-04-24T09:36:51;8.70;;;1.03;;
69152;SDS011;56261;51.580;4.578;2023-04-24T09:39:17;2.90;;;0.73;;
69152;SDS011;56261;51.580;4.578;2023-04-24T09:41:55;3.30;;;0.63;;
69152;SDS011;56261;51.580;4.578;2023-04-24T09:44:26;5.00;;;1.38;;
69152;SDS011;56261;51.580;4.578;2023-04-24T09:46:54;4.10;;;0.77;;
69152;SDS011;56261;51.580;4.578;2023-04-24T09:49:25;2.75;;;0.68;;
69152;SDS011;56261;51.580;4.578;2023-04-24T09:51:53;4.40;;;0.88;;
69152;SDS011;56261;51.580;4.578;2023-04-24T09:54:35;4.47;;;0.70;;
69152;SDS011;56261;51.580;4.578;2023-04-24T09:57:01;3.60;;;0.50;;
69152;SDS011;56261;51.580;4.578;2023-04-24T09:59:27;1.53;;;0.40;;
69152;SDS011;56261;51.580;4.578;2023-04-24T10:01:52;1.90;;;0.40;;
69152;SDS011;56261;51.580;4.578;2023-04-24T10:04:18;4.73;;;0.53;;
69152;SDS011;56261;51.580;4.578;2023-04-24T10:06:45;1.70;;;0.40;;
69152;SDS011;56261;51.580;4.578;2023-04-24T10:09:13;5.30;;;0.70;;
69152;SDS011;56261;51.580;4.578;2023-04-24T10:11:43;1.92;;;0.47;;
69152;SDS011;56261;51.580;4.578;2023-04-24T10:14:16;9.53;;;2.60;;
69152;SDS011;56261;51.580;4.578;2023-04-24T10:16:43;4.45;;;0.80;;
69152;SDS011;56261;51.580;4.578;2023-04-24T10:19:09;9.38;;;1.02;;
69152;SDS011;56261;51.580;4.578;2023-04-24T10:21:38;8.77;;;1.13;;
69152;SDS011;56261;51.580;4.578;2023-04-24T10:24:07;2.58;;;0.73;;
69152;SDS011;56261;51.580;4.578;2023-04-24T10:26:33;4.03;;;0.67;;
69152;SDS011;56261;51.580;4.578;2023-04-24T10:28:59;3.65;;;0.73;;
69152;SDS011;56261;51.580;4.578;2023-04-24T10:31:28;3.42;;;0.85;;
69152;SDS011;56261;51.580;4.578;2023-04-24T10:33:56;6.03;;;0.82;;
69152;SDS011;56261;51.580;4.578;2023-04-24T10:36:25;3.70;;;0.88;;
69152;SDS011;56261;51.580;4.578;2023-04-24T10:38:53;13.80;;;1.27;;
69152;SDS011;56261;51.580;4.578;2023-04-24T10:41:21;2.00;;;0.50;;
69152;SDS011;56261;51.580;4.578;2023-04-24T10:43:48;1.83;;;0.40;;
69152;SDS011;56261;51.580;4.578;2023-04-24T10:46:21;4.50;;;0.70;;
69152;SDS011;56261;51.580;4.578;2023-04-24T10:48:52;2.80;;;0.60;;
69152;SDS011;56261;51.580;4.578;2023-04-24T10:51:21;4.07;;;1.30;;
69152;SDS011;56261;51.580;4.578;2023-04-24T10:53:47;1.90;;;0.40;;
69152;SDS011;56261;51.580;4.578;2023-04-24T10:56:15;1.60;;;0.40;;
69152;SDS011;56261;51.580;4.578;2023-04-24T10:58:42;3.37;;;0.70;;
69152;SDS011;56261;51.580;4.578;2023-04-24T11:01:10;2.72;;;0.40;;
69152;SDS011;56261;51.580;4.578;2023-04-24T11:03:50;1.85;;;0.35;;
69152;SDS011;56261;51.580;4.578;2023-04-24T11:06:19;1.70;;;0.40;;
69152;SDS011;56261;51.580;4.578;2023-04-24T11:09:07;1.70;;;0.40;;
69152;SDS011;56261;51.580;4.578;2023-04-24T11:11:33;4.90;;;1.13;;
69152;SDS011;56261;51.580;4.578;2023-04-24T11:14:05;4.43;;;0.50;;
69152;SDS011;56261;51.580;4.578;2023-04-24T11:16:32;2.38;;;0.70;;
69152;SDS011;56261;51.580;4.578;2023-04-24T11:19:08;1.60;;;0.40;;
69152;SDS011;56261;51.580;4.578;2023-04-24T11:24:21;2.70;;;0.60;;
69152;SDS011;56261;51.580;4.578;2023-04-24T11:26:48;4.80;;;0.90;;
69152;SDS011;56261;51.580;4.578;2023-04-24T11:29:17;2.75;;;0.60;;
69152;SDS011;56261;51.580;4.578;2023-04-24T11:31:45;2.17;;;0.50;;
69152;SDS011;56261;51.580;4.578;2023-04-24T11:34:14;4.45;;;0.82;;
69152;SDS011;56261;51.580;4.578;2023-04-24T11:36:44;2.13;;;0.40;;
69152;SDS011;56261;51.580;4.578;2023-04-24T11:39:11;3.45;;;0.70;;
69152;SDS011;56261;51.580;4.578;2023-04-24T11:41:37;6.13;;;0.80;;
69152;SDS011;56261;51.580;4.578;2023-04-24T11:44:03;5.07;;;1.10;;
69152;SDS011;56261;51.580;4.578;2023-04-24T11:46:31;5.20;;;0.80;;
69152;SDS011;56261;51.580;4.578;2023-04-24T11:48:57;3.38;;;0.80;;
69152;SDS011;56261;51.580;4.578;2023-04-24T11:51:23;3.17;;;0.68;;
69152;SDS011;56261;51.580;4.578;2023-04-24T11:53:50;3.20;;;1.10;;
69152;SDS011;56261;51.580;4.578;2023-04-24T11:56:21;3.45;;;0.70;;
69152;SDS011;56261;51.580;4.578;2023-04-24T11:58:47;2.25;;;0.60;;
69152;SDS011;56261;51.580;4.578;2023-04-24T12:01:13;1.93;;;0.53;;
69152;SDS011;56261;51.580;4.578;2023-04-24T12:03:38;1.85;;;0.65;;
69152;SDS011;56261;51.580;4.578;2023-04-24T12:06:08;2.97;;;0.82;;
69152;SDS011;56261;51.580;4.578;2023-04-24T12:08:34;6.00;;;1.20;;
69152;SDS011;56261;51.580;4.578;2023-04-24T12:11:00;7.07;;;1.65;;
69152;SDS011;56261;51.580;4.578;2023-04-24T12:13:27;2.90;;;0.77;;
69152;SDS011;56261;51.580;4.578;2023-04-24T12:15:52;2.75;;;0.73;;
69152;SDS011;56261;51.580;4.578;2023-04-24T12:18:18;1.60;;;0.30;;
69152;SDS011;56261;51.580;4.578;2023-04-24T12:20:47;3.13;;;0.93;;
69152;SDS011;56261;51.580;4.578;2023-04-24T12:23:13;5.07;;;0.83;;
69152;SDS011;56261;51.580;4.578;2023-04-24T12:25:38;5.50;;;1.23;;
69152;SDS011;56261;51.580;4.578;2023-04-24T12:30:30;5.13;;;1.07;;
69152;SDS011;56261;51.580;4.578;2023-04-24T12:33:00;3.97;;;1.02;;
69152;SDS011;56261;51.580;4.578;2023-04-24T12:35:27;3.20;;;1.70;;
69152;SDS011;56261;51.580;4.578;2023-04-24T12:37:53;3.65;;;1.17;;
69152;SDS011;56261;51.580;4.578;2023-04-24T12:40:19;3.55;;;1.00;;
69152;SDS011;56261;51.580;4.578;2023-04-24T12:42:47;4.87;;;1.43;;
69152;SDS011;56261;51.580;4.578;2023-04-24T12:45:16;2.40;;;0.70;;
69152;SDS011;56261;51.580;4.578;2023-04-24T12:47:45;2.78;;;0.75;;
69152;SDS011;56261;51.580;4.578;2023-04-24T12:50:12;2.72;;;0.70;;
69152;SDS011;56261;51.580;4.578;2023-04-24T12:52:38;3.05;;;0.93;;
69152;SDS011;56261;51.580;4.578;2023-04-24T12:55:04;4.27;;;0.80;;
69152;SDS011;56261;51.580;4.578;2023-04-24T12:57:32;3.85;;;1.02;;
69152;SDS011;56261;51.580;4.578;2023-04-24T12:59:59;4.90;;;0.93;;
69152;SDS011;56261;51.580;4.578;2023-04-24T13:02:26;4.60;;;1.23;;
69152;SDS011;56261;51.580;4.578;2023-04-24T13:04:57;5.10;;;0.80;;
69152;SDS011;56261;51.580;4.578;2023-04-24T13:07:23;1.83;;;0.50;;
69152;SDS011;56261;51.580;4.578;2023-04-24T13:09:49;2.60;;;0.70;;
69152;SDS011;56261;51.580;4.578;2023-04-24T13:12:16;3.73;;;0.53;;
69152;SDS011;56261;51.580;4.578;2023-04-24T13:14:41;9.95;;;0.70;;
69152;SDS011;56261;51.580;4.578;2023-04-24T13:17:07;1.90;;;0.40;;
69152;SDS011;56261;51.580;4.578;2023-04-24T13:19:36;3.95;;;1.02;;
69152;SDS011;56261;51.580;4.578;2023-04-24T13:22:03;1.50;;;0.30;;
69152;SDS011;56261;51.580;4.578;2023-04-24T13:24:29;5.47;;;0.90;;
69152;SDS011;56261;51.580;4.578;2023-04-24T13:26:56;2.30;;;0.40;;
69152;SDS011;56261;51.580;4.578;2023-04-24T13:29:21;1.80;;;0.50;;
69152;SDS011;56261;51.580;4.578;2023-04-24T13:31:49;2.30;;;0.75;;
69152;SDS011;56261;51.580;4.578;2023-04-24T13:34:15;2.00;;;0.50;;
69152;SDS011;56261;51.580;4.578;2023-04-24T13:36:41;3.07;;;0.70;;
69152;SDS011;56261;51.580;4.578;2023-04-24T13:39:07;3.10;;;0.60;;
69152;SDS011;56261;51.580;4.578;2023-04-24T13:41:32;2.33;;;0.60;;
69152;SDS011;56261;51.580;4.578;2023-04-24T13:43:58;3.85;;;0.50;;
69152;SDS011;56261;51.580;4.578;2023-04-24T13:46:24;5.53;;;1.43;;
69152;SDS011;56261;51.580;4.578;2023-04-24T13:48:49;1.60;;;0.40;;
69152;SDS011;56261;51.580;4.578;2023-04-24T13:51:15;3.43;;;1.00;;
69152;SDS011;56261;51.580;4.578;2023-04-24T13:53:40;2.73;;;0.90;;
69152;SDS011;56261;51.580;4.578;2023-04-24T13:56:05;6.10;;;2.10;;
69152;SDS011;56261;51.580;4.578;2023-04-24T13:58:31;3.35;;;1.67;;
69152;SDS011;56261;51.580;4.578;2023-04-24T14:00:57;3.45;;;0.85;;
69152;SDS011;56261;51.580;4.578;2023-04-24T14:03:22;3.80;;;1.17;;
69152;SDS011;56261;51.580;4.578;2023-04-24T14:05:48;5.53;;;1.53;;
69152;SDS011;56261;51.580;4.578;2023-04-24T14:08:13;2.30;;;0.60;;
69152;SDS011;56261;51.580;4.578;2023-04-24T14:10:38;4.83;;;1.00;;
69152;SDS011;56261;51.580;4.578;2023-04-24T14:13:04;2.63;;;0.60;;
69152;SDS011;56261;51.580;4.578;2023-04-24T14:15:30;2.20;;;0.60;;
69152;SDS011;56261;51.580;4.578;2023-04-24T14:17:56;2.00;;;0.60;;
69152;SDS011;56261;51.580;4.578;2023-04-24T14:20:22;2.73;;;0.70;;
69152;SDS011;56261;51.580;4.578;2023-04-24T14:22:48;2.83;;;0.82;;
69152;SDS011;56261;51.580;4.578;2023-04-24T14:25:14;7.17;;;1.13;;
69152;SDS011;56261;51.580;4.578;2023-04-24T14:27:40;8.43;;;0.80;;
69152;SDS011;56261;51.580;4.578;2023-04-24T14:30:06;1.60;;;0.30;;
69152;SDS011;56261;51.580;4.578;2023-04-24T14:32:32;6.00;;;1.38;;
69152;SDS011;56261;51.580;4.578;2023-04-24T14:34:57;6.40;;;1.43;;
69152;SDS011;56261;51.580;4.578;2023-04-24T14:37:22;5.30;;;1.67;;
69152;SDS011;56261;51.580;4.578;2023-04-24T14:39:48;5.20;;;1.17;;
69152;SDS011;56261;51.580;4.578;2023-04-24T14:42:13;5.77;;;1.30;;
69152;SDS011;56261;51.580;4.578;2023-04-24T14:44:39;6.53;;;1.37;;